Time;durP1;ratioP1;P1;durP2;ratioP2;P2;SDS_P1;SDS_P2;PMS_P1;PMS_P2;Temp;Humidity;BMP_temperature;BMP_pressure;BME280_temperature;BME280_humidity;BME280_pressure;Samples;Min_cycle;Max_cycle;Signal;HPM_P1;HPM_P2
2020/12/04 00:00:36;;;;;;;6.30;5.03;;;6.50;94.00;;;;;;5156725;27;20154;-68
2020/12/04 00:03:02;;;;;;;6.13;4.82;;;6.50;93.80;;;;;;5156522;27;20106;-68
2020/12/04 00:05:27;;;;;;;7.05;4.95;;;6.50;93.80;;;;;;5156635;27;20014;-68
2020/12/04 00:07:53;;;;;;;6.43;5.13;;;6.50;93.80;;;;;;5138103;27;20481;-68
2020/12/04 00:10:19;;;;;;;7.07;4.93;;;6.50;93.80;;;;;;5137765;27;20015;-68
2020/12/04 00:12:45;;;;;;;6.25;4.80;;;6.50;93.70;;;;;;5156611;27;20029;-68
2020/12/04 00:15:10;;;;;;;7.38;5.65;;;6.50;93.80;;;;;;5137739;27;20022;-68
2020/12/04 00:17:36;;;;;;;7.18;5.40;;;6.50;93.60;;;;;;5137634;27;20010;-68
2020/12/04 00:20:05;;;;;;;5.63;4.35;;;6.50;93.60;;;;;;5156489;27;20427;-68
2020/12/04 00:22:31;;;;;;;6.20;4.85;;;6.50;93.80;;;;;;5137927;27;20063;-68
2020/12/04 00:24:57;;;;;;;5.18;4.07;;;6.50;93.80;;;;;;5156329;27;20546;-68
2020/12/04 00:27:23;;;;;;;5.07;3.35;;;6.50;93.90;;;;;;5137780;27;20099;-68
2020/12/04 00:29:49;;;;;;;5.78;4.45;;;6.50;94.00;;;;;;5137712;27;20026;-68
2020/12/04 00:32:15;;;;;;;5.47;4.18;;;6.50;94.00;;;;;;5156845;27;20031;-68
2020/12/04 00:34:40;;;;;;;5.53;4.50;;;6.50;94.00;;;;;;5137633;27;20049;-68
2020/12/04 00:37:06;;;;;;;4.97;4.30;;;6.60;94.00;;;;;;5137653;27;20029;-68
2020/12/04 00:39:32;;;;;;;7.03;5.05;;;6.50;94.10;;;;;;5156094;27;20118;-68
2020/12/04 00:41:59;;;;;;;6.68;4.95;;;6.50;94.00;;;;;;5156369;27;20026;-68
2020/12/04 00:44:24;;;;;;;6.50;4.63;;;6.50;93.90;;;;;;5155920;27;20035;-68
2020/12/04 00:46:50;;;;;;;6.53;4.85;;;6.50;94.00;;;;;;5137324;27;20091;-68
2020/12/04 00:49:16;;;;;;;7.00;4.70;;;6.50;94.00;;;;;;5155727;27;20038;-68
2020/12/04 00:51:42;;;;;;;6.18;4.65;;;6.50;93.90;;;;;;5155602;27;20381;-68
2020/12/04 00:54:07;;;;;;;5.30;4.53;;;6.50;94.00;;;;;;5155937;27;20027;-68
2020/12/04 00:56:34;;;;;;;6.65;4.63;;;6.50;94.10;;;;;;5136941;27;20095;-68
2020/12/04 00:59:00;;;;;;;6.30;4.55;;;6.50;94.00;;;;;;5137092;27;20042;-68
2020/12/04 01:01:26;;;;;;;6.90;5.30;;;6.50;94.10;;;;;;5155601;27;20043;-68
2020/12/04 01:03:52;;;;;;;6.80;4.88;;;6.50;94.00;;;;;;5155418;27;20026;-68
2020/12/04 01:06:18;;;;;;;6.93;5.40;;;6.50;94.00;;;;;;5136889;27;20100;-68
2020/12/04 01:08:44;;;;;;;5.95;4.93;;;6.50;93.90;;;;;;5155660;27;20027;-68
2020/12/04 01:11:11;;;;;;;6.82;4.97;;;6.50;94.20;;;;;;5136692;27;20019;-68
2020/12/04 01:13:37;;;;;;;5.70;4.25;;;6.50;94.20;;;;;;5155184;27;20027;-68
2020/12/04 01:16:03;;;;;;;4.72;4.20;;;6.50;94.20;;;;;;5137085;27;20051;-68
2020/12/04 01:18:30;;;;;;;6.07;5.10;;;6.60;94.10;;;;;;5155218;27;20122;-68
2020/12/04 01:20:56;;;;;;;5.95;4.85;;;6.50;94.00;;;;;;5155326;27;20031;-68
2020/12/04 01:23:22;;;;;;;5.47;4.20;;;6.50;94.00;;;;;;5136091;27;20114;-68
2020/12/04 01:25:47;;;;;;;5.38;4.38;;;6.50;93.90;;;;;;5136331;27;20022;-68
2020/12/04 01:28:13;;;;;;;5.38;4.35;;;6.50;94.10;;;;;;5154933;27;20030;-68
2020/12/04 01:30:39;;;;;;;5.65;4.55;;;6.50;94.20;;;;;;5154899;27;20022;-68
2020/12/04 01:33:05;;;;;;;5.90;4.25;;;6.50;94.10;;;;;;5154963;27;20397;-68
2020/12/04 01:35:30;;;;;;;4.22;3.40;;;6.50;94.10;;;;;;5154918;27;20057;-68
2020/12/04 01:37:56;;;;;;;3.83;3.33;;;6.50;94.20;;;;;;5154949;27;20075;-68
2020/12/04 01:40:22;;;;;;;5.50;4.22;;;6.60;94.30;;;;;;5154796;27;20041;-68
2020/12/04 01:42:48;;;;;;;6.05;4.78;;;6.60;94.20;;;;;;5154746;27;20058;-68
2020/12/04 01:45:14;;;;;;;6.68;4.88;;;6.60;94.20;;;;;;5136123;27;20099;-68
2020/12/04 01:47:40;;;;;;;7.10;5.07;;;6.60;94.00;;;;;;5154806;27;20019;-68
2020/12/04 01:50:06;;;;;;;5.90;4.68;;;6.50;94.00;;;;;;5136050;27;20063;-68
2020/12/04 01:52:32;;;;;;;5.60;4.70;;;6.50;94.10;;;;;;5136292;27;20505;-68
2020/12/04 01:54:58;;;;;;;5.20;3.83;;;6.50;94.10;;;;;;5136083;27;20188;-68
2020/12/04 01:57:27;;;;;;;5.30;4.22;;;6.50;94.10;;;;;;5135946;27;20018;-68
2020/12/04 01:59:53;;;;;;;4.93;4.00;;;6.50;94.00;;;;;;5135992;27;20027;-68
2020/12/04 02:02:22;;;;;;;4.93;3.97;;;6.50;94.40;;;;;;5155102;27;20041;-68
2020/12/04 02:04:49;;;;;;;6.43;4.15;;;6.50;94.10;;;;;;5140371;27;20070;-68
2020/12/04 02:07:34;;;;;;;5.03;4.10;;;6.50;94.20;;;;;;5159337;27;20018;-68
2020/12/04 02:10:06;;;;;;;5.43;4.43;;;6.60;94.20;;;;;;5159319;27;20038;-68
2020/12/04 02:12:34;;;;;;;5.30;4.07;;;6.50;94.10;;;;;;5140063;27;20053;-68
2020/12/04 02:15:01;;;;;;;4.97;3.85;;;6.50;94.10;;;;;;5158694;27;20027;-68
2020/12/04 02:17:32;;;;;;;5.57;3.83;;;6.50;94.20;;;;;;5159193;27;20534;-68
2020/12/04 02:19:58;;;;;;;4.45;3.45;;;6.50;94.10;;;;;;5158658;27;20102;-68
2020/12/04 02:22:24;;;;;;;5.65;4.30;;;6.50;94.10;;;;;;5140030;27;20504;-68
2020/12/04 02:24:53;;;;;;;5.30;4.03;;;6.50;94.00;;;;;;5136513;27;20039;-68
2020/12/04 02:27:19;;;;;;;5.13;4.30;;;6.40;94.00;;;;;;5138053;27;20473;-68
2020/12/04 02:29:45;;;;;;;5.63;4.47;;;6.40;94.10;;;;;;5136764;27;20047;-68
2020/12/04 02:32:14;;;;;;;5.72;4.70;;;6.40;94.00;;;;;;5137948;27;20032;-68
2020/12/04 02:34:40;;;;;;;5.55;4.25;;;6.40;94.20;;;;;;5136327;27;20111;-68
2020/12/04 02:37:07;;;;;;;5.50;4.35;;;6.40;94.10;;;;;;5137602;27;20042;-68
2020/12/04 02:39:34;;;;;;;6.38;4.63;;;6.40;94.10;;;;;;5136261;27;20028;-68
2020/12/04 02:42:00;;;;;;;5.60;4.22;;;6.40;94.10;;;;;;5136112;27;20117;-69
2020/12/04 02:44:25;;;;;;;6.25;4.05;;;6.40;94.20;;;;;;5135872;27;20055;-68
2020/12/04 02:46:52;;;;;;;5.32;3.95;;;6.40;94.10;;;;;;5138227;27;20058;-68
2020/12/04 02:49:20;;;;;;;6.38;4.13;;;6.40;94.10;;;;;;5137375;27;20050;-68
2020/12/04 02:51:47;;;;;;;4.78;3.75;;;6.40;94.20;;;;;;5137608;27;20407;-68
2020/12/04 02:54:13;;;;;;;5.07;3.60;;;6.40;94.20;;;;;;5135958;27;20030;-68
2020/12/04 02:56:38;;;;;;;4.28;3.72;;;6.40;94.10;;;;;;5135836;27;20031;-68
2020/12/04 02:59:04;;;;;;;4.35;3.55;;;6.40;94.10;;;;;;5135897;27;20076;-68
2020/12/04 03:01:30;;;;;;;4.43;3.58;;;6.40;94.10;;;;;;5137294;27;20030;-68
2020/12/04 03:03:55;;;;;;;5.28;3.40;;;6.40;94.10;;;;;;5137112;27;20474;-68
2020/12/04 03:06:21;;;;;;;3.35;3.00;;;6.40;94.10;;;;;;5137070;27;20059;-69
2020/12/04 03:08:46;;;;;;;4.18;3.08;;;6.40;94.20;;;;;;5136973;27;20031;-68
2020/12/04 03:11:12;;;;;;;4.50;3.50;;;6.40;94.20;;;;;;5137007;27;20030;-68
2020/12/04 03:13:38;;;;;;;4.43;3.67;;;6.40;94.10;;;;;;5136832;27;20399;-68
2020/12/04 03:16:03;;;;;;;5.18;4.07;;;6.40;94.20;;;;;;5137133;27;20027;-68
2020/12/04 03:18:29;;;;;;;5.15;3.53;;;6.40;94.20;;;;;;5137551;27;20489;-69
2020/12/04 03:20:55;;;;;;;4.85;3.67;;;6.40;94.20;;;;;;5135731;27;20027;-68
2020/12/04 03:23:20;;;;;;;4.32;3.42;;;6.40;94.20;;;;;;5138230;27;20054;-68
2020/12/04 03:25:48;;;;;;;4.80;3.40;;;6.40;94.20;;;;;;5139020;27;20022;-68
2020/12/04 03:28:13;;;;;;;5.95;3.42;;;6.40;94.00;;;;;;5157699;27;20010;-68
2020/12/04 03:30:39;;;;;;;4.75;3.97;;;6.40;94.00;;;;;;5157319;27;20042;-68
2020/12/04 03:33:05;;;;;;;5.80;3.97;;;6.40;94.00;;;;;;5157472;27;20042;-68
2020/12/04 03:35:31;;;;;;;4.57;3.90;;;6.40;94.00;;;;;;5138639;27;20029;-68
2020/12/04 03:37:57;;;;;;;5.03;3.80;;;6.40;94.00;;;;;;5138675;27;20126;-68
2020/12/04 03:40:22;;;;;;;5.88;4.00;;;6.30;93.90;;;;;;5157383;27;20423;-68
2020/12/04 03:42:48;;;;;;;4.35;3.75;;;6.30;93.90;;;;;;5156943;27;20035;-68
2020/12/04 03:45:13;;;;;;;4.55;3.53;;;6.30;94.00;;;;;;5157066;27;20023;-68
2020/12/04 03:47:39;;;;;;;5.60;3.95;;;6.30;94.10;;;;;;5138618;27;20525;-68
2020/12/04 03:50:06;;;;;;;5.65;3.97;;;6.40;94.20;;;;;;5138690;27;20023;-68
2020/12/04 03:52:31;;;;;;;4.38;3.70;;;6.40;94.10;;;;;;5157081;27;20066;-68
2020/12/04 03:54:57;;;;;;;5.72;3.65;;;6.40;94.10;;;;;;5138274;27;20129;-68
2020/12/04 03:57:23;;;;;;;4.18;3.60;;;6.40;94.00;;;;;;5138352;27;20015;-68
2020/12/04 03:59:48;;;;;;;4.45;3.50;;;6.40;94.20;;;;;;5156873;27;20038;-68
2020/12/04 04:02:14;;;;;;;5.05;3.85;;;6.40;94.20;;;;;;5138069;27;20359;-68
2020/12/04 04:04:39;;;;;;;4.28;3.50;;;6.40;94.20;;;;;;5138012;27;20019;-68
2020/12/04 04:07:05;;;;;;;4.18;3.53;;;6.50;94.30;;;;;;5137954;27;20535;-68
2020/12/04 04:09:31;;;;;;;4.10;3.42;;;6.50;94.20;;;;;;5156482;27;20044;-68
2020/12/04 04:11:56;;;;;;;5.03;4.00;;;6.50;94.30;;;;;;5157315;27;20030;-68
2020/12/04 04:14:22;;;;;;;3.95;3.25;;;6.50;94.40;;;;;;5156376;27;20015;-68
2020/12/04 04:16:48;;;;;;;4.22;3.78;;;6.50;94.30;;;;;;5137792;27;20042;-68
2020/12/04 04:19:14;;;;;;;4.97;4.10;;;6.50;94.20;;;;;;5156683;27;20026;-68
2020/12/04 04:21:39;;;;;;;5.10;3.70;;;6.50;94.20;;;;;;5156241;27;20373;-68
2020/12/04 04:24:08;;;;;;;4.80;3.50;;;6.50;94.30;;;;;;5156442;27;20390;-68
2020/12/04 04:26:34;;;;;;;4.53;3.65;;;6.50;94.30;;;;;;5155446;27;20038;-68
2020/12/04 04:29:00;;;;;;;4.70;3.53;;;6.50;94.20;;;;;;5137534;27;20063;-68
2020/12/04 04:31:25;;;;;;;4.30;3.38;;;6.50;94.20;;;;;;5156573;27;20410;-68
2020/12/04 04:33:51;;;;;;;4.40;3.55;;;6.50;94.30;;;;;;5156129;27;20026;-68
2020/12/04 04:36:17;;;;;;;4.32;3.42;;;6.50;94.30;;;;;;5156088;27;20109;-68
2020/12/04 04:38:42;;;;;;;3.80;3.15;;;6.50;94.40;;;;;;5155922;27;20083;-68
2020/12/04 04:41:08;;;;;;;4.18;3.05;;;6.50;94.30;;;;;;5156059;27;20104;-68
2020/12/04 04:43:34;;;;;;;4.97;3.80;;;6.50;94.30;;;;;;5155624;27;20022;-68
2020/12/04 04:46:15;;;;;;;5.82;3.55;;;6.60;94.30;;;;;;5137276;27;20014;-68
2020/12/04 04:48:52;;;;;;;5.35;3.50;;;6.60;94.40;;;;;;5156225;27;20098;-68
2020/12/04 04:51:20;;;;;;;4.20;3.40;;;6.60;94.40;;;;;;5137178;27;20193;-68
2020/12/04 04:53:54;;;;;;;4.40;3.70;;;6.60;94.30;;;;;;5137136;27;20023;-68
2020/12/04 04:56:20;;;;;;;4.25;3.60;;;6.60;94.30;;;;;;5137030;27;20359;-68
2020/12/04 04:58:45;;;;;;;4.53;3.28;;;6.60;94.40;;;;;;5156047;27;20030;-68
2020/12/04 05:01:11;;;;;;;3.92;3.25;;;6.60;94.30;;;;;;5155690;27;20353;-68
2020/12/04 05:03:37;;;;;;;4.38;3.40;;;6.60;94.40;;;;;;5136892;27;20076;-68
2020/12/04 05:06:02;;;;;;;4.22;3.35;;;6.60;94.30;;;;;;5156064;27;20050;-68
2020/12/04 05:08:28;;;;;;;4.45;3.20;;;6.60;94.30;;;;;;5155425;27;20554;-68
2020/12/04 05:11:07;;;;;;;4.85;3.83;;;6.60;94.30;;;;;;5155279;27;20030;-68
2020/12/04 05:13:33;;;;;;;4.65;3.28;;;6.60;94.30;;;;;;5136785;27;20508;-68
2020/12/04 05:15:59;;;;;;;4.50;3.58;;;6.60;94.30;;;;;;5136964;27;20023;-68
2020/12/04 05:18:24;;;;;;;4.68;3.20;;;6.60;94.40;;;;;;5136910;27;20059;-68
2020/12/04 05:20:55;;;;;;;3.85;3.05;;;6.60;94.30;;;;;;5136540;27;20026;-68
2020/12/04 05:23:21;;;;;;;3.10;2.78;;;6.60;94.30;;;;;;5136313;27;20050;-68
2020/12/04 05:25:49;;;;;;;5.65;3.55;;;6.60;94.20;;;;;;5155713;27;20457;-68
2020/12/04 05:28:23;;;;;;;3.35;2.35;;;6.50;94.10;;;;;;5136511;27;20071;-68
2020/12/04 05:31:03;;;;;;;4.25;3.58;;;6.50;94.20;;;;;;5136453;27;20046;-68
2020/12/04 05:33:30;;;;;;;3.78;3.03;;;6.50;94.50;;;;;;5136279;27;20023;-68
2020/12/04 05:35:55;;;;;;;3.95;3.20;;;6.50;94.20;;;;;;5136403;27;20026;-68
2020/12/04 05:38:21;;;;;;;3.83;3.10;;;6.50;94.20;;;;;;5154914;27;20106;-68
2020/12/04 05:41:01;;;;;;;3.78;2.97;;;6.50;94.20;;;;;;5155449;27;20090;-68
2020/12/04 05:43:31;;;;;;;3.42;3.00;;;6.50;94.30;;;;;;5154822;27;20058;-68
2020/12/04 05:46:24;;;;;;;3.70;2.55;;;6.50;94.30;;;;;;5136323;27;20098;-68
2020/12/04 05:48:56;;;;;;;3.55;3.03;;;6.50;94.30;;;;;;5154742;27;20473;-68
2020/12/04 05:51:28;;;;;;;3.00;2.42;;;6.50;94.30;;;;;;5136207;27;20363;-68
2020/12/04 05:53:54;;;;;;;3.50;2.70;;;6.60;94.40;;;;;;5136206;27;20037;-68
2020/12/04 05:56:21;;;;;;;3.35;2.90;;;6.60;94.40;;;;;;5154742;27;20084;-68
2020/12/04 05:58:48;;;;;;;3.58;3.03;;;6.50;94.20;;;;;;5154803;27;20079;-68
2020/12/04 06:01:16;;;;;;;4.05;3.00;;;6.50;94.30;;;;;;5136484;27;20023;-68
2020/12/04 06:03:43;;;;;;;3.35;2.90;;;6.60;94.50;;;;;;5137454;27;20037;-68
2020/12/04 06:06:11;;;;;;;4.22;3.30;;;6.50;94.40;;;;;;5137282;27;20083;-68
2020/12/04 06:08:41;;;;;;;3.85;3.28;;;6.60;94.50;;;;;;5156600;27;20075;-68
2020/12/04 06:11:08;;;;;;;3.10;2.65;;;6.60;94.50;;;;;;5155079;27;20019;-68
2020/12/04 06:13:35;;;;;;;3.10;2.80;;;6.60;94.50;;;;;;5156674;27;20027;-68
2020/12/04 06:16:31;;;;;;;3.38;3.00;;;6.70;94.50;;;;;;5137444;27;20053;-68
2020/12/04 06:18:57;;;;;;;3.85;2.97;;;6.60;94.40;;;;;;5124257;27;20043;-68
2020/12/04 06:21:47;;;;;;;2.85;2.60;;;6.60;94.30;;;;;;5137487;27;20050;-68
2020/12/04 06:24:13;;;;;;;3.33;2.33;;;6.60;94.40;;;;;;5154570;27;20062;-68
2020/12/04 06:26:47;;;;;;;2.83;2.40;;;6.60;94.40;;;;;;5155296;27;20038;-68
2020/12/04 06:29:12;;;;;;;2.20;1.95;;;6.60;94.40;;;;;;5154341;27;20027;-68
2020/12/04 06:31:38;;;;;;;4.13;2.90;;;6.60;94.40;;;;;;5154441;27;20380;-68
2020/12/04 06:34:21;;;;;;;2.33;2.05;;;6.70;94.40;;;;;;5154597;27;20381;-68
2020/12/04 06:36:48;;;;;;;3.03;2.25;;;6.70;94.50;;;;;;5135782;27;20022;-68
2020/12/04 06:39:31;;;;;;;2.60;2.25;;;6.70;94.60;;;;;;5135698;27;20130;-69
2020/12/04 06:41:58;;;;;;;2.30;2.10;;;6.70;94.50;;;;;;5154451;27;20034;-69
2020/12/04 06:44:25;;;;;;;3.83;2.53;;;6.80;94.60;;;;;;5154167;27;20680;-69
2020/12/04 06:46:53;;;;;;;3.60;2.60;;;6.80;94.60;;;;;;5135631;27;20034;-69
2020/12/04 06:51:59;;;;;;;3.28;2.53;;;6.80;94.60;;;;;;5158133;27;20477;-69
2020/12/04 06:54:26;;;;;;;2.65;2.38;;;6.80;94.60;;;;;;5158078;27;20031;-68
2020/12/04 06:56:52;;;;;;;3.65;2.58;;;6.90;94.60;;;;;;5158046;27;20041;-68
2020/12/04 06:59:36;;;;;;;3.08;2.30;;;6.90;94.60;;;;;;5139193;27;20495;-68
2020/12/04 07:02:14;;;;;;;3.25;2.40;;;6.90;94.70;;;;;;5139900;27;20038;-68
2020/12/04 07:04:48;;;;;;;2.70;2.50;;;7.00;94.70;;;;;;5157697;27;20083;-68
2020/12/04 07:07:16;;;;;;;3.55;2.10;;;7.00;94.70;;;;;;5157680;27;20102;-68
2020/12/04 07:09:51;;;;;;;2.55;2.33;;;7.00;94.60;;;;;;5157762;27;20077;-68
2020/12/04 07:12:17;;;;;;;2.53;2.20;;;7.00;94.60;;;;;;5157590;27;20023;-68
2020/12/04 07:14:51;;;;;;;2.50;2.13;;;7.00;94.70;;;;;;5158144;27;20481;-68
2020/12/04 07:17:18;;;;;;;2.50;1.98;;;7.10;94.80;;;;;;5157254;27;20033;-67
2020/12/04 07:19:45;;;;;;;2.58;1.95;;;7.10;94.80;;;;;;5157140;27;20034;-68
2020/12/04 07:22:11;;;;;;;2.97;2.40;;;7.20;94.90;;;;;;5157261;27;20022;-68
2020/12/04 07:24:37;;;;;;;2.65;2.20;;;7.20;94.90;;;;;;5157118;27;20046;-68
2020/12/04 07:27:04;;;;;;;2.70;2.05;;;7.20;94.90;;;;;;5138926;27;20027;-68
2020/12/04 07:29:30;;;;;;;3.00;2.10;;;7.20;94.80;;;;;;5157112;27;20066;-68
2020/12/04 07:31:56;;;;;;;3.00;2.25;;;7.20;94.90;;;;;;5138667;27;20033;-68
2020/12/04 07:34:24;;;;;;;2.28;2.08;;;7.30;94.90;;;;;;5138456;27;20410;-68
2020/12/04 07:36:55;;;;;;;3.13;1.88;;;7.30;94.80;;;;;;5138376;27;20023;-68
2020/12/04 07:39:26;;;;;;;2.85;1.73;;;7.30;94.80;;;;;;5138352;27;20378;-68
2020/12/04 07:41:51;;;;;;;3.35;2.00;;;7.30;94.80;;;;;;5156888;27;20431;-68
2020/12/04 07:44:17;;;;;;;2.05;1.80;;;7.30;94.70;;;;;;5156809;27;20067;-68
2020/12/04 07:46:43;;;;;;;2.08;1.70;;;7.30;94.80;;;;;;5156899;27;20097;-68
2020/12/04 07:49:11;;;;;;;3.95;1.88;;;7.40;94.80;;;;;;5138014;27;20107;-68
2020/12/04 07:51:39;;;;;;;2.08;1.77;;;7.40;94.80;;;;;;5156604;27;20123;-68
2020/12/04 07:54:17;;;;;;;2.60;2.03;;;7.40;94.80;;;;;;5138038;27;20069;-68
2020/12/04 07:56:51;;;;;;;2.50;1.80;;;7.40;94.80;;;;;;5156559;27;20039;-68
2020/12/04 07:59:24;;;;;;;1.60;1.50;;;7.40;94.80;;;;;;5137911;27;20049;-68
2020/12/04 08:01:50;;;;;;;2.72;1.80;;;7.40;94.80;;;;;;5155431;27;20026;-70
2020/12/04 08:04:19;;;;;;;2.22;1.90;;;7.40;94.80;;;;;;5137622;27;20074;-68
2020/12/04 08:06:46;;;;;;;1.88;1.58;;;7.40;94.70;;;;;;5156404;27;20026;-68
2020/12/04 08:09:14;;;;;;;2.10;1.60;;;7.40;94.80;;;;;;5156241;27;20022;-68
2020/12/04 08:12:11;;;;;;;1.85;1.50;;;7.50;94.80;;;;;;5137549;27;20019;-68
2020/12/04 08:14:39;;;;;;;1.75;1.65;;;7.50;94.80;;;;;;5154705;27;20042;-68
2020/12/04 08:17:06;;;;;;;1.98;1.77;;;7.50;94.80;;;;;;5137520;27;20026;-69
2020/12/04 08:19:34;;;;;;;1.75;1.63;;;7.60;94.90;;;;;;5137523;27;20099;-68
2020/12/04 08:22:06;;;;;;;1.65;1.50;;;7.60;94.90;;;;;;5156188;27;20155;-68
2020/12/04 08:24:34;;;;;;;3.05;1.58;;;7.60;94.80;;;;;;5133705;27;20039;-68
2020/12/04 08:27:14;;;;;;;2.40;1.60;;;7.70;94.80;;;;;;5133984;27;20054;-68
2020/12/04 08:29:43;;;;;;;1.55;1.30;;;7.70;94.80;;;;;;5133839;27;20092;-68
2020/12/04 08:32:14;;;;;;;1.75;1.33;;;7.70;94.80;;;;;;5135164;27;20031;-68
2020/12/04 08:34:42;;;;;;;1.42;1.33;;;7.70;94.80;;;;;;5135030;27;20498;-68
2020/12/04 08:37:11;;;;;;;1.58;1.48;;;7.80;94.80;;;;;;5135085;27;20386;-68
2020/12/04 08:39:42;;;;;;;1.67;1.25;;;7.80;94.90;;;;;;5133520;27;20031;-69
2020/12/04 08:42:18;;;;;;;2.05;1.60;;;7.90;94.90;;;;;;5134839;27;20102;-68
2020/12/04 08:45:13;;;;;;;1.42;1.30;;;7.90;94.90;;;;;;5133483;27;20486;-68
2020/12/04 08:47:41;;;;;;;2.97;1.52;;;8.00;94.80;;;;;;5125682;27;20430;-68
2020/12/04 08:50:16;;;;;;;1.73;1.33;;;8.00;94.80;;;;;;5133446;27;20046;-69
2020/12/04 08:52:47;;;;;;;2.42;1.40;;;8.00;94.70;;;;;;5134594;27;20019;-68
2020/12/04 08:55:16;;;;;;;1.65;1.40;;;8.00;94.60;;;;;;5133288;27;20105;-68
2020/12/04 08:57:43;;;;;;;1.40;1.30;;;7.90;94.50;;;;;;5135188;27;20037;-68
2020/12/04 09:00:11;;;;;;;1.92;1.35;;;7.90;94.40;;;;;;5134580;27;20031;-68
2020/12/04 09:02:37;;;;;;;2.03;1.73;;;7.80;94.40;;;;;;5135028;27;20662;-68
2020/12/04 09:05:08;;;;;;;1.50;1.23;;;7.90;94.50;;;;;;5133490;27;20076;-68
2020/12/04 09:07:38;;;;;;;2.20;1.63;;;7.90;94.50;;;;;;5135857;27;20034;-68
2020/12/04 09:10:05;;;;;;;1.90;1.42;;;8.00;94.60;;;;;;5135175;27;20043;-68
2020/12/04 09:12:31;;;;;;;1.58;1.40;;;8.00;94.50;;;;;;5134158;27;20054;-67
2020/12/04 09:14:56;;;;;;;2.08;1.38;;;8.00;94.50;;;;;;5134862;27;20058;-68
2020/12/04 09:17:22;;;;;;;3.00;1.70;;;8.10;94.50;;;;;;5137610;27;20092;-67
2020/12/04 09:19:48;;;;;;;1.58;1.48;;;8.10;94.60;;;;;;5135018;27;20035;-68
2020/12/04 09:22:15;;;;;;;3.08;1.60;;;8.20;94.90;;;;;;5133950;27;20042;-68
2020/12/04 09:24:42;;;;;;;2.35;1.50;;;8.30;94.60;;;;;;5144245;27;20039;-68
2020/12/04 09:27:09;;;;;;;3.42;1.65;;;8.30;94.50;;;;;;5137000;27;20446;-70
2020/12/04 09:29:35;;;;;;;4.13;1.77;;;8.30;94.50;;;;;;5154876;27;20019;-69
2020/12/04 09:32:09;;;;;;;2.20;1.63;;;8.40;94.50;;;;;;5154902;27;20030;-69
2020/12/04 09:34:35;;;;;;;1.92;1.48;;;8.40;94.50;;;;;;5136203;27;20033;-69
2020/12/04 09:37:22;;;;;;;6.55;3.60;;;8.40;94.70;;;;;;5154943;27;20034;-69
2020/12/04 09:39:50;;;;;;;3.33;2.13;;;8.40;94.40;;;;;;5154782;27;20030;-69
2020/12/04 09:42:17;;;;;;;3.17;1.50;;;8.40;94.40;;;;;;5154985;27;20037;-69
2020/12/04 09:44:44;;;;;;;3.17;1.50;;;8.50;94.40;;;;;;5154649;27;20076;-69
2020/12/04 09:47:11;;;;;;;1.88;1.30;;;8.40;94.40;;;;;;5154681;27;20057;-69
2020/12/04 09:49:37;;;;;;;1.70;1.30;;;8.50;94.40;;;;;;5136020;27;20019;-69
2020/12/04 09:52:04;;;;;;;1.20;1.10;;;8.50;94.50;;;;;;5136079;27;20019;-69
2020/12/04 09:54:31;;;;;;;2.05;0.90;;;8.50;94.40;;;;;;5154434;27;20026;-69
2020/12/04 09:56:57;;;;;;;1.02;0.90;;;8.60;94.50;;;;;;5154747;27;20026;-69
2020/12/04 09:59:24;;;;;;;1.73;1.00;;;8.60;94.50;;;;;;5135953;27;20030;-69
2020/12/04 10:01:52;;;;;;;1.10;0.80;;;8.60;94.40;;;;;;5154847;27;20023;-69
2020/12/04 10:04:18;;;;;;;2.00;0.80;;;8.60;94.30;;;;;;5135763;27;20059;-69
2020/12/04 10:06:45;;;;;;;1.05;0.63;;;8.70;94.30;;;;;;5154540;27;20042;-69
2020/12/04 10:09:11;;;;;;;1.00;0.70;;;8.70;94.30;;;;;;5154539;27;20087;-69
2020/12/04 10:11:37;;;;;;;1.38;0.77;;;8.70;94.30;;;;;;5135645;27;20102;-69
2020/12/04 10:14:03;;;;;;;0.98;0.70;;;8.80;94.30;;;;;;5154188;27;20039;-69
2020/12/04 10:16:29;;;;;;;0.75;0.70;;;8.80;94.40;;;;;;5154322;27;20055;-69
2020/12/04 10:18:56;;;;;;;1.02;0.60;;;8.80;94.30;;;;;;5154471;27;20062;-69
2020/12/04 10:21:22;;;;;;;0.82;0.40;;;8.90;94.30;;;;;;5154330;27;20114;-69
2020/12/04 10:23:47;;;;;;;0.47;0.47;;;9.00;94.30;;;;;;5136469;27;20160;-69
2020/12/04 10:26:13;;;;;;;0.50;0.50;;;9.00;94.10;;;;;;5139832;27;20023;-69
2020/12/04 10:28:38;;;;;;;0.68;0.50;;;9.00;94.20;;;;;;5158436;27;20462;-69
2020/12/04 10:31:04;;;;;;;0.50;0.30;;;9.10;94.10;;;;;;5158296;27;20022;-69
2020/12/04 10:33:30;;;;;;;0.38;0.30;;;9.00;94.10;;;;;;5139647;27;20385;-69
2020/12/04 10:35:55;;;;;;;0.40;0.13;;;9.10;94.00;;;;;;5158308;27;20023;-69
2020/12/04 10:38:21;;;;;;;0.20;0.20;;;9.10;93.90;;;;;;5158002;27;20122;-70
2020/12/04 10:40:47;;;;;;;0.40;0.22;;;9.10;93.80;;;;;;5139554;27;20023;-70
2020/12/04 10:43:12;;;;;;;0.57;0.30;;;9.10;93.60;;;;;;5158370;27;20026;-70
2020/12/04 10:45:38;;;;;;;1.35;0.85;;;9.10;93.70;;;;;;5158111;27;20110;-70
2020/12/04 10:48:03;;;;;;;1.52;1.10;;;9.10;93.70;;;;;;5158189;27;20035;-69
2020/12/04 10:50:29;;;;;;;2.47;1.90;;;9.10;93.50;;;;;;5157764;27;20097;-70
2020/12/04 10:52:55;;;;;;;1.90;1.50;;;9.20;94.00;;;;;;5139862;27;20083;-76
2020/12/04 10:58:42;;;;;;;0.50;0.45;;;9.20;93.40;;;;;;5158226;27;20094;-73
2020/12/04 11:01:12;;;;;;;0.77;0.38;;;9.10;93.20;;;;;;5139180;27;20034;-74
2020/12/04 11:06:06;;;;;;;0.25;0.25;;;9.20;93.40;;;;;;5157669;27;20042;-73
2020/12/04 11:08:31;;;;;;;0.52;0.40;;;9.30;93.30;;;;;;5157882;27;20406;-74
2020/12/04 11:10:57;;;;;;;0.30;0.20;;;9.30;93.50;;;;;;5157371;27;20054;-74
2020/12/04 11:13:23;;;;;;;0.40;0.25;;;9.40;93.20;;;;;;5157352;27;20086;-74
2020/12/04 11:15:48;;;;;;;2.08;0.17;;;9.40;93.20;;;;;;5157333;27;20389;-74
2020/12/04 11:18:14;;;;;;;0.60;0.40;;;9.50;93.30;;;;;;5157325;27;20027;-75
2020/12/04 11:20:39;;;;;;;0.30;0.30;;;9.50;93.10;;;;;;5157009;27;20030;-73
2020/12/04 11:23:05;;;;;;;0.20;0.20;;;9.50;93.00;;;;;;5157104;27;20038;-74
2020/12/04 11:25:31;;;;;;;0.43;0.20;;;9.50;92.90;;;;;;5138296;27;20047;-74
2020/12/04 11:27:57;;;;;;;0.73;0.40;;;9.40;92.70;;;;;;5157176;27;20023;-74
2020/12/04 11:30:22;;;;;;;0.50;0.30;;;9.50;92.90;;;;;;5157368;27;20105;-75
2020/12/04 11:32:50;;;;;;;0.25;0.25;;;9.50;92.90;;;;;;5157037;27;20022;-74
2020/12/04 11:35:18;;;;;;;0.30;0.30;;;9.60;93.10;;;;;;5156892;27;20022;-75
2020/12/04 11:37:47;;;;;;;1.48;0.50;;;9.60;92.80;;;;;;5153379;27;20033;-74
2020/12/04 11:40:13;;;;;;;1.38;0.28;;;9.60;92.80;;;;;;5137914;27;20545;-74
2020/12/04 11:42:41;;;;;;;0.22;0.20;;;9.60;92.90;;;;;;5138111;27;20037;-74
2020/12/04 11:45:09;;;;;;;0.30;0.30;;;9.70;93.00;;;;;;5157073;27;20066;-74
2020/12/04 11:47:38;;;;;;;0.45;0.32;;;9.70;92.90;;;;;;5156754;27;20037;-74
2020/12/04 11:50:08;;;;;;;0.40;0.40;;;9.70;92.50;;;;;;5156476;27;20026;-74
2020/12/04 11:52:35;;;;;;;0.98;0.40;;;9.70;92.40;;;;;;5137894;27;20014;-75
2020/12/04 11:55:01;;;;;;;0.60;0.40;;;9.70;92.50;;;;;;5156249;27;20018;-74
2020/12/04 11:57:27;;;;;;;0.57;0.50;;;9.70;92.40;;;;;;5156369;27;20030;-75
2020/12/04 11:59:53;;;;;;;0.50;0.40;;;9.80;91.50;;;;;;5156168;27;20030;-75
2020/12/04 12:02:18;;;;;;;0.85;0.32;;;9.80;92.00;;;;;;5137548;27;20026;-74
2020/12/04 12:04:44;;;;;;;0.32;0.32;;;9.80;92.40;;;;;;5137658;27;20027;-73
2020/12/04 12:07:10;;;;;;;0.65;0.40;;;9.80;92.50;;;;;;5137663;27;20054;-74
2020/12/04 12:09:36;;;;;;;0.38;0.30;;;9.80;92.20;;;;;;5156257;27;20023;-74
2020/12/04 12:12:01;;;;;;;0.77;0.30;;;9.90;92.00;;;;;;5156481;27;20015;-74
2020/12/04 12:14:27;;;;;;;1.42;0.40;;;9.90;91.90;;;;;;5138544;27;20084;-74
2020/12/04 12:16:53;;;;;;;0.98;0.45;;;9.90;92.20;;;;;;5137564;27;20122;-74
2020/12/04 12:19:18;;;;;;;0.88;0.40;;;9.90;92.00;;;;;;5156072;27;20033;-74
2020/12/04 12:21:47;;;;;;;0.20;0.20;;;9.90;92.00;;;;;;5137170;27;20019;-74
2020/12/04 12:24:13;;;;;;;0.40;0.40;;;9.90;92.00;;;;;;5137056;27;20355;-74
2020/12/04 12:26:39;;;;;;;0.93;0.30;;;9.90;92.00;;;;;;5137328;27;20075;-74
2020/12/04 12:29:05;;;;;;;0.45;0.35;;;9.90;91.90;;;;;;5137593;27;20346;-74
2020/12/04 12:31:31;;;;;;;3.10;0.40;;;9.90;91.90;;;;;;5155805;27;20090;-73
2020/12/04 12:33:57;;;;;;;0.60;0.50;;;9.90;92.10;;;;;;5137183;27;20478;-74
2020/12/04 12:36:24;;;;;;;1.33;0.90;;;10.00;91.90;;;;;;5155965;27;20046;-75
2020/12/04 12:38:50;;;;;;;1.55;1.00;;;10.00;91.50;;;;;;5155714;27;20582;-73
2020/12/04 12:41:16;;;;;;;2.55;1.10;;;10.00;91.70;;;;;;5136982;27;20026;-74
2020/12/04 12:43:42;;;;;;;1.65;1.23;;;9.90;91.90;;;;;;5136869;27;20462;-74
2020/12/04 12:46:08;;;;;;;2.00;1.10;;;9.90;91.80;;;;;;5136640;27;20015;-74
2020/12/04 12:48:34;;;;;;;3.65;1.67;;;9.90;91.70;;;;;;5137638;27;20338;-74
2020/12/04 12:51:00;;;;;;;2.55;1.25;;;9.90;91.60;;;;;;5136878;27;20014;-74
2020/12/04 12:53:25;;;;;;;1.48;1.00;;;9.80;91.20;;;;;;5155328;27;20038;-74
2020/12/04 12:55:51;;;;;;;1.80;1.23;;;9.80;91.10;;;;;;5137481;27;20506;-74
2020/12/04 12:58:17;;;;;;;1.88;1.23;;;9.70;90.90;;;;;;5136906;27;20023;-75
2020/12/04 13:00:43;;;;;;;1.63;0.93;;;9.60;90.80;;;;;;5137028;27;20353;-74
2020/12/04 13:03:09;;;;;;;2.15;1.02;;;9.60;90.90;;;;;;5136707;27;20026;-74
2020/12/04 13:05:35;;;;;;;1.50;1.20;;;9.70;91.10;;;;;;5155440;27;20015;-74
2020/12/04 13:08:06;;;;;;;1.00;0.73;;;9.70;91.20;;;;;;5136683;27;20049;-75